Etusivu
METAR-TAF:

METAR-TAF

Lentoasemat :

Cairns, Australia

Leveyspiiri: 16-53S, Pituuspiiri: 145-45E, korkeus merenpinnasta: 3 m

Tämänhetkinen sää

Tämä raportti tehtiin 12 minuuttia sitten, kello 01.00 UTC
Tuuli 20 kn kaakosta
Lämpötila 26°C
Kosteus 61%
Ilmanpaine 1016 hPa
Näkyvyys 10 km tai enemmän
Muutamia pilviä 3000 ft:n korkeudessa

METAR: YBCS 250100Z 13020KT 9999 FEW030 26/18 Q1016 NOSIG

Aika: 11:12 (01:12 UTC)

Sääennuste

Tämä raportti tehtiin 2 tuntia ja 5 minuuttia sitten, kello 23.07 UTC
Ennuste voimassa 25. päivästä klo 00 UTC - 25. päivään klo 24 UTC
Tuuli 17 kn kaakosta
Näkyvyys 10 km tai enemmän
Muutamia pilviä 3000 ft:n korkeudessa
From 25. päivästä klo 0800 UTC
Tuuli 8 kn etelästä/kaakosta
Näkyvyys 10 km tai enemmän
Muutamia pilviä 2500 ft:n korkeudessa

TAF: YBCS 242307Z 2500/2524 13017KT 9999 FEW030 FM250800 16008KT 9999 FEW025

Säähavainnot ja -ennusteet yli 4000 lentoasemalta (METAR- ja TAF-raportit).

Käytössä olevat sääasemat on merkitty karttaan keltaisilla ja punaisilla pisteillä.

Aseta hiiri pisteen päälle nähdäksesi sääaseman nimen.

Klikkaa sitten nähdäksesi säähavainnot ja -ennusteet.

Kartan vaihtaminen: klikkaa mustalla rastilla varustettuja vihreitä pisteitä, niin voit zoomata sisään; viivalla varustettua vihreää pistettä, niin voit zoomata ulos tai vihreitä nuolia, niin pääset viereisille kartoille.


METAR-TAF: